Time;durP1;ratioP1;P1;durP2;ratioP2;P2;SDS_P1;SDS_P2;PMS_P1;PMS_P2;Temp;Humidity;BMP_temperature;BMP_pressure;BME280_temperature;BME280_humidity;BME280_pressure;Samples;Min_cycle;Max_cycle;Signal;HPM_P1;HPM_P2
2023/12/18 00:01:24;;;;;;;12.13;7.30;;;5.20;99.90;;;;;;5092126;28;20199;-58
2023/12/18 00:03:50;;;;;;;11.77;7.40;;;5.10;99.90;;;;;;5092074;28;20177;-58
2023/12/18 00:06:15;;;;;;;9.38;7.45;;;5.10;99.90;;;;;;5092251;28;20168;-58
2023/12/18 00:08:41;;;;;;;11.48;8.00;;;5.00;99.90;;;;;;5091978;28;20201;-59
2023/12/18 00:11:06;;;;;;;10.27;7.90;;;4.90;99.90;;;;;;5091941;28;20154;-58
2023/12/18 00:13:32;;;;;;;10.02;7.53;;;5.00;99.90;;;;;;5092296;28;20609;-59
2023/12/18 00:15:57;;;;;;;12.20;8.82;;;4.80;99.90;;;;;;5091845;28;20158;-58
2023/12/18 00:18:23;;;;;;;11.25;7.75;;;4.90;99.90;;;;;;5091731;28;20237;-59
2023/12/18 00:20:50;;;;;;;14.80;10.40;;;5.00;99.90;;;;;;5091810;28;20172;-59
2023/12/18 00:23:16;;;;;;;17.75;10.27;;;5.00;99.90;;;;;;5091976;28;20169;-59
2023/12/18 00:25:43;;;;;;;11.43;7.40;;;4.80;99.90;;;;;;5105062;28;20535;-59
2023/12/18 00:28:08;;;;;;;20.33;10.80;;;4.80;99.90;;;;;;5094429;28;20248;-59
2023/12/18 00:30:34;;;;;;;14.00;9.18;;;4.80;99.90;;;;;;5091703;28;20199;-57
2023/12/18 00:32:59;;;;;;;13.75;8.68;;;4.90;99.90;;;;;;5092040;28;20165;-59
2023/12/18 00:35:25;;;;;;;14.23;8.30;;;4.90;99.90;;;;;;5091614;28;20173;-60
2023/12/18 00:37:50;;;;;;;11.65;7.65;;;4.80;99.90;;;;;;5091513;28;20624;-59
2023/12/18 00:40:16;;;;;;;17.17;7.88;;;4.70;99.90;;;;;;5091538;28;20539;-59
2023/12/18 00:42:42;;;;;;;12.32;6.45;;;4.70;99.90;;;;;;5091828;28;20632;-59
2023/12/18 00:45:08;;;;;;;12.55;7.03;;;4.80;99.90;;;;;;5091703;28;20189;-59
2023/12/18 00:47:33;;;;;;;10.82;8.10;;;4.60;99.90;;;;;;5073539;28;20162;-55
2023/12/18 00:49:59;;;;;;;10.52;7.82;;;4.70;99.90;;;;;;5091876;28;20172;-58
2023/12/18 00:52:24;;;;;;;12.55;7.47;;;4.70;99.90;;;;;;5091326;28;20578;-59
2023/12/18 00:54:50;;;;;;;12.63;7.65;;;4.60;99.90;;;;;;5095214;28;20629;-59
2023/12/18 00:57:16;;;;;;;12.90;7.50;;;4.70;99.90;;;;;;5095334;28;20212;-58
2023/12/18 00:59:41;;;;;;;16.42;8.07;;;4.60;99.90;;;;;;5095502;28;20173;-58
2023/12/18 01:02:07;;;;;;;11.48;6.97;;;4.60;99.90;;;;;;5095089;28;20655;-58
2023/12/18 01:04:32;;;;;;;10.23;7.10;;;4.50;99.90;;;;;;5095682;28;20174;-58
2023/12/18 01:06:58;;;;;;;15.10;8.57;;;4.50;99.90;;;;;;5095335;28;20613;-58
2023/12/18 01:09:24;;;;;;;15.25;8.23;;;4.50;99.90;;;;;;5095663;28;20191;-58
2023/12/18 01:11:50;;;;;;;8.63;6.38;;;4.50;99.90;;;;;;5095342;28;20183;-58
2023/12/18 01:14:15;;;;;;;12.27;8.00;;;4.40;99.90;;;;;;5095579;28;20178;-57
2023/12/18 01:16:41;;;;;;;11.90;7.28;;;4.40;99.90;;;;;;5095112;28;20192;-55
2023/12/18 01:19:07;;;;;;;9.65;6.60;;;4.30;99.90;;;;;;5095154;28;20204;-59
2023/12/18 01:21:34;;;;;;;9.30;7.00;;;4.30;99.90;;;;;;5095554;28;20193;-57
2023/12/18 01:23:59;;;;;;;9.55;6.82;;;4.30;99.90;;;;;;5095529;28;20177;-58
2023/12/18 01:26:25;;;;;;;8.02;6.72;;;4.30;99.90;;;;;;5095675;28;20173;-58
2023/12/18 01:28:50;;;;;;;10.57;6.50;;;4.40;99.90;;;;;;5094970;28;20166;-58
2023/12/18 01:31:23;;;;;;;12.02;6.50;;;4.30;99.90;;;;;;5095202;28;20639;-57
2023/12/18 01:33:51;;;;;;;8.82;7.50;;;4.20;99.90;;;;;;5095134;28;20230;-58
2023/12/18 01:36:17;;;;;;;11.35;7.88;;;4.30;99.90;;;;;;5094889;28;20573;-57
2023/12/18 01:38:43;;;;;;;13.88;8.40;;;4.40;99.90;;;;;;5095000;28;20213;-58
2023/12/18 01:41:08;;;;;;;13.40;8.05;;;4.40;99.90;;;;;;5094703;28;20206;-58
2023/12/18 01:43:34;;;;;;;18.60;8.90;;;4.20;99.90;;;;;;5094674;28;20169;-57
2023/12/18 01:46:01;;;;;;;14.05;8.38;;;4.30;99.90;;;;;;5095107;28;20295;-58
2023/12/18 01:48:28;;;;;;;10.30;7.40;;;4.20;99.90;;;;;;5094624;28;20161;-58
2023/12/18 01:50:54;;;;;;;8.98;6.53;;;4.20;99.90;;;;;;5094545;28;20185;-58
2023/12/18 01:53:23;;;;;;;11.32;6.97;;;4.20;99.90;;;;;;5094316;28;20758;-57
2023/12/18 01:55:49;;;;;;;12.55;6.90;;;4.10;99.90;;;;;;5107346;28;20181;-58
2023/12/18 01:58:15;;;;;;;10.38;7.40;;;4.20;99.90;;;;;;5114746;28;20200;-57
2023/12/18 02:00:41;;;;;;;10.13;6.78;;;4.30;99.90;;;;;;5114822;28;20684;-58
2023/12/18 02:03:09;;;;;;;12.15;6.82;;;4.20;99.90;;;;;;5114749;28;20176;-58
2023/12/18 02:05:36;;;;;;;12.82;6.93;;;4.40;99.90;;;;;;5114406;28;20168;-58
2023/12/18 02:08:03;;;;;;;11.63;7.45;;;4.30;99.90;;;;;;5115160;28;20161;-58
2023/12/18 02:10:30;;;;;;;14.68;7.72;;;4.20;99.90;;;;;;5115086;28;20205;-57
2023/12/18 02:12:55;;;;;;;29.25;13.35;;;4.20;99.90;;;;;;5114539;28;20157;-58
2023/12/18 02:15:21;;;;;;;22.40;11.93;;;4.30;99.90;;;;;;5114775;28;20217;-56
2023/12/18 02:17:46;;;;;;;17.67;9.07;;;4.30;99.90;;;;;;5114335;28;20683;-58
2023/12/18 02:20:12;;;;;;;20.15;10.40;;;4.20;99.90;;;;;;5114528;28;20164;-58
2023/12/18 02:22:50;;;;;;;14.85;8.00;;;4.30;99.90;;;;;;5114430;28;20615;-58
2023/12/18 02:25:17;;;;;;;12.20;7.15;;;4.20;99.90;;;;;;5106987;28;20168;-57
2023/12/18 02:27:45;;;;;;;11.57;7.03;;;4.20;99.90;;;;;;5094144;28;20188;-58
2023/12/18 02:30:17;;;;;;;8.38;6.28;;;4.00;99.90;;;;;;5094084;28;20169;-58
2023/12/18 02:32:43;;;;;;;11.90;6.60;;;3.90;99.90;;;;;;5093719;28;20641;-58
2023/12/18 02:35:09;;;;;;;10.73;6.57;;;3.80;99.90;;;;;;5093724;28;20169;-58
2023/12/18 02:37:35;;;;;;;8.02;6.13;;;3.80;99.90;;;;;;5093847;28;20269;-58
2023/12/18 02:40:01;;;;;;;8.57;6.55;;;3.70;99.90;;;;;;5094053;28;20161;-57
2023/12/18 02:42:26;;;;;;;8.45;6.57;;;3.80;99.90;;;;;;5093548;28;20169;-58
2023/12/18 02:44:53;;;;;;;11.63;7.47;;;3.90;99.90;;;;;;5093480;28;20173;-56
2023/12/18 02:47:19;;;;;;;9.77;7.43;;;3.90;99.90;;;;;;5093460;28;20169;-57
2023/12/18 02:49:44;;;;;;;8.32;6.93;;;3.80;99.90;;;;;;5093467;28;20173;-57
2023/12/18 02:52:10;;;;;;;13.57;7.40;;;3.90;99.90;;;;;;5093237;28;20233;-57
2023/12/18 02:54:37;;;;;;;9.65;6.20;;;3.80;99.90;;;;;;5093555;28;20633;-58
2023/12/18 02:57:02;;;;;;;16.13;8.02;;;3.70;99.90;;;;;;5113223;28;20233;-57
2023/12/18 02:59:28;;;;;;;8.27;5.70;;;3.80;99.90;;;;;;5114169;28;20165;-57
2023/12/18 03:01:53;;;;;;;11.10;7.00;;;3.80;99.90;;;;;;5113487;28;20173;-57
2023/12/18 03:04:19;;;;;;;11.20;7.75;;;3.70;99.90;;;;;;5113581;28;20168;-56
2023/12/18 03:06:48;;;;;;;11.27;7.30;;;3.70;99.90;;;;;;5113743;28;20176;-58
2023/12/18 03:09:14;;;;;;;12.07;7.90;;;3.70;99.90;;;;;;5113563;28;20173;-58
2023/12/18 03:11:41;;;;;;;10.05;7.80;;;3.70;99.90;;;;;;5113362;28;20165;-58
2023/12/18 03:14:07;;;;;;;12.93;9.55;;;3.80;99.90;;;;;;5111274;28;20165;-57
2023/12/18 03:16:33;;;;;;;12.52;10.55;;;3.80;99.90;;;;;;5112953;28;20226;-57
2023/12/18 03:18:59;;;;;;;11.05;7.57;;;3.80;99.90;;;;;;5113636;28;20173;-57
2023/12/18 03:21:24;;;;;;;15.05;11.02;;;3.80;99.90;;;;;;5113176;28;20195;-57
2023/12/18 03:23:50;;;;;;;16.65;12.00;;;3.90;99.90;;;;;;5113157;28;20293;-58
2023/12/18 03:26:16;;;;;;;11.82;9.45;;;3.80;99.90;;;;;;5099988;28;20178;-56
2023/12/18 03:28:41;;;;;;;9.85;7.65;;;3.90;99.90;;;;;;5092611;28;20223;-57
2023/12/18 03:31:07;;;;;;;14.85;10.80;;;3.90;99.90;;;;;;5092857;28;20177;-57
2023/12/18 03:33:32;;;;;;;14.90;12.43;;;4.00;99.90;;;;;;5093285;28;20162;-58
2023/12/18 03:35:58;;;;;;;12.05;6.85;;;3.90;99.90;;;;;;5092970;28;20168;-57
2023/12/18 03:38:24;;;;;;;12.70;7.78;;;4.00;99.90;;;;;;5092381;28;20208;-57
2023/12/18 03:40:50;;;;;;;13.15;7.53;;;3.90;99.90;;;;;;5092529;28;20252;-57
2023/12/18 03:43:15;;;;;;;10.05;7.80;;;3.90;99.90;;;;;;5092434;28;20655;-57
2023/12/18 03:45:41;;;;;;;9.25;7.57;;;3.90;99.90;;;;;;5092434;28;20169;-57
2023/12/18 03:48:07;;;;;;;9.68;7.25;;;3.90;99.90;;;;;;5092303;28;20169;-57
2023/12/18 03:50:32;;;;;;;11.18;6.88;;;3.80;99.90;;;;;;5092683;28;20173;-57
2023/12/18 03:52:58;;;;;;;9.85;6.65;;;3.70;99.90;;;;;;5092075;28;20287;-58
2023/12/18 03:55:23;;;;;;;10.05;6.57;;;3.90;99.90;;;;;;5097364;28;20179;-57
2023/12/18 03:57:49;;;;;;;9.93;6.13;;;3.70;99.90;;;;;;5112418;28;20207;-58
2023/12/18 04:00:15;;;;;;;11.30;6.00;;;3.70;99.90;;;;;;5112569;28;20167;-58
2023/12/18 04:02:41;;;;;;;9.00;6.10;;;3.60;99.90;;;;;;5112431;28;20244;-58
2023/12/18 04:05:07;;;;;;;8.30;5.65;;;3.80;99.90;;;;;;5112389;28;20580;-57
2023/12/18 04:07:33;;;;;;;8.45;5.95;;;3.70;99.90;;;;;;5113031;28;20198;-58
2023/12/18 04:09:58;;;;;;;14.32;6.50;;;5.30;99.90;;;;;;5112728;28;20200;-58
2023/12/18 04:12:24;;;;;;;9.07;6.47;;;3.80;99.90;;;;;;5112299;28;20172;-57
2023/12/18 04:14:49;;;;;;;10.15;6.15;;;3.70;99.90;;;;;;5112240;28;20620;-57
2023/12/18 04:17:15;;;;;;;8.55;6.05;;;3.70;99.90;;;;;;5112042;28;20719;-57
2023/12/18 04:19:40;;;;;;;9.60;5.82;;;3.80;99.90;;;;;;5112204;28;20175;-55
2023/12/18 04:22:06;;;;;;;13.57;6.03;;;3.80;99.90;;;;;;5112154;28;20200;-58
2023/12/18 04:24:31;;;;;;;8.98;5.82;;;3.70;99.90;;;;;;5112613;28;20255;-54
2023/12/18 04:26:57;;;;;;;12.60;6.25;;;3.70;99.90;;;;;;5093343;28;20205;-57
2023/12/18 04:29:22;;;;;;;10.25;6.00;;;3.60;99.90;;;;;;5091656;28;20161;-57
2023/12/18 04:31:51;;;;;;;9.18;6.50;;;3.60;99.90;;;;;;5091676;28;20173;-57
2023/12/18 04:34:17;;;;;;;15.18;7.72;;;3.60;99.90;;;;;;5091561;28;20294;-56
2023/12/18 04:36:43;;;;;;;12.35;7.70;;;3.60;99.90;;;;;;5091440;28;20244;-56
2023/12/18 04:39:10;;;;;;;9.88;6.22;;;3.60;99.90;;;;;;5091568;28;20168;-56
2023/12/18 04:41:36;;;;;;;13.63;6.25;;;3.60;99.90;;;;;;5091536;28;20195;-53
2023/12/18 04:44:02;;;;;;;14.80;6.75;;;3.60;99.90;;;;;;5091941;28;20208;-55
2023/12/18 04:46:32;;;;;;;11.63;6.05;;;3.50;99.90;;;;;;5073409;28;20238;-57
2023/12/18 04:48:58;;;;;;;10.38;5.65;;;3.50;99.90;;;;;;5091858;28;20236;-57
2023/12/18 04:51:23;;;;;;;9.43;5.97;;;3.50;99.90;;;;;;5091446;28;20633;-57
2023/12/18 04:53:49;;;;;;;9.07;6.10;;;3.50;99.90;;;;;;5091276;28;20232;-56
2023/12/18 04:56:14;;;;;;;13.57;6.80;;;3.50;99.90;;;;;;5104638;28;20184;-56
2023/12/18 04:58:40;;;;;;;10.10;7.25;;;3.50;99.90;;;;;;5111733;28;20196;-54
2023/12/18 05:01:05;;;;;;;12.75;7.63;;;3.50;99.90;;;;;;5111688;28;20173;-56
2023/12/18 05:03:31;;;;;;;10.98;6.47;;;3.40;99.90;;;;;;5112027;28;20194;-54
2023/12/18 05:05:57;;;;;;;14.77;7.25;;;3.30;99.90;;;;;;5111715;28;20161;-56
2023/12/18 05:08:22;;;;;;;11.43;7.10;;;3.30;99.90;;;;;;5111561;28;20200;-54
2023/12/18 05:10:48;;;;;;;9.63;6.00;;;3.30;99.90;;;;;;5111827;28;20153;-54
2023/12/18 05:13:13;;;;;;;9.55;5.60;;;3.30;99.90;;;;;;5111596;28;20207;-56
2023/12/18 05:15:39;;;;;;;9.57;5.63;;;3.30;99.90;;;;;;5111682;28;20165;-53
2023/12/18 05:18:05;;;;;;;13.85;5.95;;;3.30;99.90;;;;;;5111533;28;20204;-54
2023/12/18 05:20:31;;;;;;;10.43;5.18;;;3.30;99.90;;;;;;5112330;28;20189;-54
2023/12/18 05:22:57;;;;;;;9.43;5.03;;;3.20;99.90;;;;;;5111548;28;20203;-53
2023/12/18 05:25:22;;;;;;;8.45;5.20;;;3.20;99.90;;;;;;5104576;28;20628;-53
2023/12/18 05:27:48;;;;;;;10.18;5.10;;;3.30;99.90;;;;;;5099555;28;20177;-52
2023/12/18 05:30:14;;;;;;;9.95;4.88;;;3.30;99.90;;;;;;5079158;28;20174;-53
2023/12/18 05:32:39;;;;;;;10.80;5.47;;;3.20;99.90;;;;;;5090512;28;20165;-54
2023/12/18 05:35:05;;;;;;;14.65;7.55;;;3.10;99.90;;;;;;5090581;28;20628;-54
2023/12/18 05:37:31;;;;;;;11.77;7.13;;;3.10;99.90;;;;;;5090710;28;20288;-53
2023/12/18 05:39:56;;;;;;;14.63;7.38;;;3.10;99.90;;;;;;5092737;28;20169;-53
2023/12/18 05:42:22;;;;;;;18.50;7.70;;;3.20;99.90;;;;;;5094170;28;20169;-53
2023/12/18 05:44:47;;;;;;;10.85;6.25;;;3.10;99.90;;;;;;5094177;28;20577;-53
2023/12/18 05:47:13;;;;;;;13.02;7.10;;;3.00;99.90;;;;;;5094064;28;20162;-53
2023/12/18 05:49:38;;;;;;;10.38;6.28;;;3.10;99.90;;;;;;5094277;28;20173;-52
2023/12/18 05:52:04;;;;;;;12.00;6.70;;;3.10;99.90;;;;;;5075552;28;20675;-52
2023/12/18 05:54:30;;;;;;;16.27;7.43;;;3.00;99.90;;;;;;5094567;28;20173;-53
2023/12/18 05:56:56;;;;;;;10.77;7.18;;;3.00;99.90;;;;;;5094481;28;20277;-55
2023/12/18 05:59:21;;;;;;;12.52;8.10;;;3.00;99.90;;;;;;5094062;28;20628;-56
2023/12/18 06:01:47;;;;;;;15.68;11.07;;;2.90;99.90;;;;;;5093847;28;20565;-55
2023/12/18 06:04:13;;;;;;;13.73;9.23;;;3.00;99.90;;;;;;5094008;28;20220;-53
2023/12/18 06:06:38;;;;;;;16.52;9.55;;;3.00;99.90;;;;;;5093720;28;20158;-53
2023/12/18 06:09:04;;;;;;;19.85;11.40;;;2.90;99.90;;;;;;5093654;28;20252;-53
2023/12/18 06:11:29;;;;;;;14.93;10.48;;;3.00;99.90;;;;;;5093990;28;20169;-54
2023/12/18 06:13:55;;;;;;;17.27;9.52;;;3.00;99.90;;;;;;5093473;28;20204;-53
2023/12/18 06:16:21;;;;;;;15.32;8.32;;;3.00;99.90;;;;;;5093564;28;20511;-54
2023/12/18 06:18:46;;;;;;;13.63;6.53;;;3.00;99.90;;;;;;5093336;28;20208;-53
2023/12/18 06:21:12;;;;;;;11.85;7.28;;;3.00;99.90;;;;;;5093481;28;20222;-53
2023/12/18 06:23:38;;;;;;;8.38;6.70;;;3.00;99.90;;;;;;5093367;28;20162;-52
2023/12/18 06:26:04;;;;;;;16.60;7.25;;;3.10;99.90;;;;;;5093703;28;20652;-53
2023/12/18 06:28:30;;;;;;;12.60;7.63;;;2.90;99.90;;;;;;5094059;28;20191;-52
2023/12/18 06:30:55;;;;;;;13.65;8.93;;;3.00;99.90;;;;;;5093125;28;20161;-52
2023/12/18 06:33:21;;;;;;;15.10;9.82;;;3.00;99.90;;;;;;5093142;28;20618;-53
2023/12/18 06:35:46;;;;;;;14.93;8.05;;;3.00;99.90;;;;;;5102239;28;20256;-53
2023/12/18 06:38:12;;;;;;;18.00;8.82;;;3.00;99.90;;;;;;5113319;28;20211;-53
2023/12/18 06:40:37;;;;;;;16.92;8.02;;;2.90;99.90;;;;;;5095313;28;20651;-56
2023/12/18 06:43:03;;;;;;;17.13;6.57;;;2.90;99.90;;;;;;5113190;28;20528;-55
2023/12/18 06:45:29;;;;;;;12.30;7.63;;;2.80;99.90;;;;;;5113920;28;20247;-59
2023/12/18 06:47:54;;;;;;;12.60;7.28;;;2.90;99.90;;;;;;5113319;28;20210;-59
2023/12/18 06:50:20;;;;;;;14.00;7.45;;;2.90;99.90;;;;;;5113097;28;20160;-58
2023/12/18 06:52:45;;;;;;;14.35;7.28;;;3.00;99.90;;;;;;5113106;28;20251;-59
2023/12/18 06:55:11;;;;;;;13.98;7.15;;;2.90;99.90;;;;;;5106105;28;20250;-59
2023/12/18 06:57:37;;;;;;;13.68;7.47;;;3.00;99.90;;;;;;5103627;28;20197;-59
2023/12/18 07:00:03;;;;;;;11.50;7.55;;;3.00;99.90;;;;;;5113461;28;20214;-51
2023/12/18 07:02:28;;;;;;;13.95;7.32;;;3.10;99.90;;;;;;5113442;28;20169;-59
2023/12/18 07:04:54;;;;;;;18.02;7.28;;;3.10;99.90;;;;;;5113045;28;20184;-59
2023/12/18 07:07:19;;;;;;;9.05;6.05;;;3.10;99.90;;;;;;5112938;28;20165;-59
2023/12/18 07:09:45;;;;;;;16.48;9.93;;;3.00;99.90;;;;;;5112879;28;20597;-59
2023/12/18 07:12:11;;;;;;;10.63;6.30;;;2.90;99.90;;;;;;5112741;28;20569;-59
2023/12/18 07:14:38;;;;;;;12.65;6.78;;;2.70;99.90;;;;;;5112738;28;20179;-59
2023/12/18 07:17:04;;;;;;;11.30;5.60;;;2.80;99.90;;;;;;5112469;28;20250;-59
2023/12/18 07:19:30;;;;;;;18.92;11.32;;;2.80;99.90;;;;;;5113135;28;20416;-58
2023/12/18 07:21:55;;;;;;;57.28;28.15;;;2.70;99.90;;;;;;5112559;28;20169;-58
2023/12/18 07:24:21;;;;;;;56.67;28.92;;;2.70;99.90;;;;;;5110202;28;20621;-58
2023/12/18 07:26:46;;;;;;;22.80;12.25;;;2.80;99.90;;;;;;5092542;28;20564;-58
2023/12/18 07:29:12;;;;;;;21.20;11.52;;;2.80;99.90;;;;;;5092157;28;20516;-57
2023/12/18 07:31:38;;;;;;;30.15;11.93;;;2.80;99.90;;;;;;5092019;28;20580;-58
2023/12/18 07:34:03;;;;;;;18.08;10.30;;;2.80;99.90;;;;;;5092159;28;20180;-58
2023/12/18 07:36:29;;;;;;;15.43;9.00;;;2.80;99.90;;;;;;5092688;28;20233;-53
2023/12/18 07:38:55;;;;;;;16.48;9.07;;;2.80;99.90;;;;;;5091858;28;20251;-56
2023/12/18 07:41:20;;;;;;;24.67;12.82;;;2.80;99.90;;;;;;5092297;28;20166;-59
2023/12/18 07:43:46;;;;;;;16.40;9.45;;;2.80;99.90;;;;;;5091837;28;20185;-58
2023/12/18 07:46:18;;;;;;;13.90;8.57;;;2.80;99.90;;;;;;5091874;28;20165;-55
2023/12/18 07:48:47;;;;;;;20.55;9.38;;;2.80;99.90;;;;;;5091971;28;20260;-59
2023/12/18 07:51:12;;;;;;;15.48;7.53;;;2.80;99.90;;;;;;5091607;28;20161;-60
2023/12/18 07:53:38;;;;;;;13.05;8.18;;;2.80;99.90;;;;;;5091562;28;20615;-59
2023/12/18 07:56:04;;;;;;;25.00;13.02;;;2.80;99.90;;;;;;5091972;28;20174;-59
2023/12/18 07:58:30;;;;;;;56.25;25.17;;;2.80;99.90;;;;;;5091923;28;20227;-59
2023/12/18 08:00:57;;;;;;;39.25;17.65;;;2.80;99.90;;;;;;5091807;28;20715;-51
2023/12/18 08:03:22;;;;;;;53.22;22.02;;;2.80;99.90;;;;;;5091426;28;20196;-51
2023/12/18 08:05:48;;;;;;;36.65;17.77;;;2.90;99.90;;;;;;5091393;28;20241;-51
2023/12/18 08:08:13;;;;;;;35.80;17.30;;;2.90;99.90;;;;;;5091616;28;20166;-52
2023/12/18 08:10:39;;;;;;;15.52;8.40;;;2.90;99.90;;;;;;5091487;28;20177;-51
2023/12/18 08:13:05;;;;;;;14.40;7.93;;;2.90;99.90;;;;;;5091427;28;20245;-53
2023/12/18 08:15:31;;;;;;;17.33;7.80;;;2.80;99.90;;;;;;5092281;28;20256;-51
2023/12/18 08:17:57;;;;;;;32.08;15.95;;;2.90;99.90;;;;;;5091704;28;20293;-51
2023/12/18 08:20:22;;;;;;;16.17;9.35;;;2.90;99.90;;;;;;5091710;28;20687;-51
2023/12/18 08:22:48;;;;;;;13.35;8.43;;;2.90;99.90;;;;;;5091672;28;20558;-51
2023/12/18 08:25:13;;;;;;;72.63;33.88;;;3.00;99.90;;;;;;5091978;28;20535;-52
2023/12/18 08:27:40;;;;;;;31.55;14.70;;;3.10;99.90;;;;;;5106450;28;20610;-52
2023/12/18 08:30:08;;;;;;;17.17;11.27;;;3.10;99.90;;;;;;5111972;28;20168;-51
2023/12/18 08:32:34;;;;;;;19.42;10.70;;;3.30;99.90;;;;;;5111880;28;20711;-51
2023/12/18 08:35:00;;;;;;;17.90;10.90;;;3.20;99.90;;;;;;5112437;28;20207;-52
2023/12/18 08:37:27;;;;;;;12.65;9.25;;;3.30;99.90;;;;;;5112062;28;20204;-51
2023/12/18 08:39:53;;;;;;;16.35;10.52;;;3.50;99.90;;;;;;5111809;28;20636;-55
2023/12/18 08:42:18;;;;;;;19.23;9.95;;;3.50;99.90;;;;;;5111742;28;20213;-55
2023/12/18 08:44:44;;;;;;;18.75;10.85;;;3.60;99.90;;;;;;5112071;28;20643;-51
2023/12/18 08:47:10;;;;;;;19.30;11.13;;;3.50;99.90;;;;;;5111777;28;20536;-50
2023/12/18 08:49:35;;;;;;;24.77;11.82;;;3.60;99.90;;;;;;5111751;28;20620;-50
2023/12/18 08:52:01;;;;;;;24.33;12.30;;;3.70;99.90;;;;;;5112000;28;20212;-52
2023/12/18 08:54:26;;;;;;;18.15;10.95;;;3.60;99.90;;;;;;5111697;28;20515;-51
2023/12/18 08:56:52;;;;;;;20.40;12.50;;;3.70;99.90;;;;;;5111443;28;20168;-51
2023/12/18 08:59:18;;;;;;;23.23;12.95;;;3.60;99.90;;;;;;5111293;28;20168;-53
2023/12/18 09:01:43;;;;;;;20.00;11.70;;;3.60;99.90;;;;;;5111688;28;20222;-50
2023/12/18 09:04:09;;;;;;;22.25;12.52;;;3.50;99.90;;;;;;5111649;28;20175;-50
2023/12/18 09:06:36;;;;;;;24.83;12.43;;;3.50;99.90;;;;;;5111579;28;20247;-51
2023/12/18 09:09:02;;;;;;;19.45;12.23;;;3.60;99.90;;;;;;5112012;28;20253;-53
2023/12/18 09:11:30;;;;;;;19.98;12.02;;;3.70;99.90;;;;;;5111991;28;20188;-52
2023/12/18 09:13:56;;;;;;;20.42;11.75;;;3.80;99.90;;;;;;5112088;28;20530;-52
2023/12/18 09:16:22;;;;;;;20.73;11.57;;;3.90;99.90;;;;;;5115607;28;20172;-53
2023/12/18 09:18:47;;;;;;;24.15;11.75;;;3.90;99.90;;;;;;5115517;28;20200;-58
2023/12/18 09:21:13;;;;;;;22.23;13.13;;;4.00;99.90;;;;;;5115602;28;20237;-57
2023/12/18 09:23:39;;;;;;;21.00;12.25;;;4.00;99.90;;;;;;5115524;28;20190;-58
2023/12/18 09:26:04;;;;;;;21.25;12.63;;;4.00;99.90;;;;;;5113861;28;20210;-52
2023/12/18 09:28:30;;;;;;;17.02;11.95;;;3.90;99.90;;;;;;5095474;28;20176;-58
2023/12/18 09:30:56;;;;;;;22.40;12.52;;;4.00;99.90;;;;;;5094900;28;20162;-59
2023/12/18 09:33:21;;;;;;;20.98;11.77;;;4.00;99.90;;;;;;5094939;28;20577;-59
2023/12/18 09:35:47;;;;;;;22.98;10.38;;;3.90;99.90;;;;;;5094813;28;20166;-59
2023/12/18 09:38:13;;;;;;;18.92;11.52;;;4.00;99.90;;;;;;5094769;28;20262;-59
2023/12/18 09:40:43;;;;;;;13.23;8.57;;;4.00;99.90;;;;;;5095062;28;20193;-56
2023/12/18 09:43:14;;;;;;;15.65;9.60;;;4.10;99.90;;;;;;5094746;28;20165;-57
2023/12/18 09:45:40;;;;;;;19.10;11.45;;;4.10;99.90;;;;;;5094752;28;20680;-59
2023/12/18 09:48:07;;;;;;;17.63;10.75;;;4.10;99.90;;;;;;5094877;28;20173;-58
2023/12/18 09:50:33;;;;;;;22.00;11.27;;;4.30;99.90;;;;;;5094605;28;20196;-55
2023/12/18 09:53:05;;;;;;;20.20;12.23;;;4.30;99.90;;;;;;5094914;28;20248;-60
2023/12/18 09:55:32;;;;;;;19.00;11.57;;;4.50;99.90;;;;;;5095214;28;20539;-58
2023/12/18 09:58:00;;;;;;;21.35;12.25;;;3.20;99.90;;;;;;5095371;28;20213;-59
2023/12/18 10:00:26;;;;;;;18.75;11.95;;;4.60;99.90;;;;;;5094385;28;20210;-57
2023/12/18 10:02:57;;;;;;;18.73;13.02;;;4.70;99.90;;;;;;5094307;28;20697;-59
2023/12/18 10:05:22;;;;;;;19.08;11.35;;;4.70;99.90;;;;;;5094339;28;20169;-55
2023/12/18 10:07:48;;;;;;;24.17;12.85;;;4.70;99.90;;;;;;5094259;28;20165;-54
2023/12/18 10:10:15;;;;;;;19.20;11.75;;;4.60;99.90;;;;;;5094283;28;20165;-52
2023/12/18 10:12:41;;;;;;;25.23;13.25;;;4.60;99.90;;;;;;5093201;28;20162;-57
2023/12/18 10:15:08;;;;;;;22.55;15.48;;;4.60;99.90;;;;;;5093328;28;20176;-56
2023/12/18 10:17:34;;;;;;;22.13;14.02;;;4.80;99.90;;;;;;5094094;28;20204;-56
2023/12/18 10:20:03;;;;;;;25.00;16.15;;;4.80;99.90;;;;;;5094457;28;20165;-55
2023/12/18 10:22:28;;;;;;;24.08;16.00;;;5.00;99.90;;;;;;5094657;28;20170;-51
2023/12/18 10:24:57;;;;;;;25.60;14.43;;;5.00;99.90;;;;;;5093489;28;20162;-54
2023/12/18 10:27:22;;;;;;;21.80;15.35;;;5.10;99.90;;;;;;5094273;28;20170;-53
2023/12/18 10:29:48;;;;;;;18.58;13.75;;;5.10;99.90;;;;;;5093839;28;20261;-59
2023/12/18 10:32:14;;;;;;;26.77;16.60;;;5.00;99.90;;;;;;5094115;28;20170;-59
2023/12/18 10:34:39;;;;;;;23.60;12.88;;;5.00;99.90;;;;;;5093786;28;20229;-59
2023/12/18 10:37:05;;;;;;;22.80;13.65;;;5.10;99.90;;;;;;5093587;28;20205;-60
2023/12/18 10:39:35;;;;;;;24.77;15.65;;;5.00;99.90;;;;;;5094078;28;20173;-60
2023/12/18 10:42:05;;;;;;;23.95;15.90;;;5.00;99.90;;;;;;5094075;28;20177;-59
2023/12/18 10:44:33;;;;;;;22.67;14.52;;;5.10;99.90;;;;;;5094286;28;20166;-59
2023/12/18 10:46:59;;;;;;;23.70;13.25;;;5.30;99.90;;;;;;5094031;28;20215;-60
2023/12/18 10:49:28;;;;;;;21.95;13.10;;;5.40;99.90;;;;;;5093447;28;20165;-59
2023/12/18 10:51:56;;;;;;;23.50;14.27;;;5.30;99.90;;;;;;5092814;28;20274;-59
2023/12/18 10:54:24;;;;;;;19.58;13.13;;;5.10;99.90;;;;;;5093333;28;20161;-59
2023/12/18 10:56:51;;;;;;;18.45;12.43;;;5.10;99.90;;;;;;5102803;28;20207;-59
2023/12/18 10:59:19;;;;;;;17.70;12.18;;;5.10;99.90;;;;;;5095358;28;20169;-59
2023/12/18 11:01:46;;;;;;;20.77;13.32;;;5.00;99.90;;;;;;5113618;28;20152;-59
2023/12/18 11:04:13;;;;;;;17.83;12.02;;;4.90;99.90;;;;;;5113961;28;20173;-59
2023/12/18 11:06:40;;;;;;;19.52;11.50;;;4.80;99.90;;;;;;5113798;28;20169;-59
2023/12/18 11:09:05;;;;;;;23.40;14.88;;;4.90;99.90;;;;;;5113507;28;20160;-60
2023/12/18 11:11:34;;;;;;;25.42;15.13;;;4.80;99.90;;;;;;5113716;28;20554;-60
2023/12/18 11:14:09;;;;;;;22.30;13.55;;;4.80;99.90;;;;;;5113659;28;20161;-53
2023/12/18 11:17:25;;;;;;;21.23;13.23;;;4.80;99.90;;;;;;5113593;28;20175;-54
2023/12/18 11:20:02;;;;;;;18.05;12.02;;;4.80;99.90;;;;;;5068148;28;20635;-52
2023/12/18 11:22:41;;;;;;;20.30;12.98;;;4.80;99.90;;;;;;5113590;28;20623;-52
2023/12/18 11:25:08;;;;;;;21.50;12.00;;;4.80;99.90;;;;;;5113146;28;20161;-53
2023/12/18 11:27:34;;;;;;;22.10;13.90;;;4.90;99.90;;;;;;5095010;28;20205;-54
2023/12/18 11:30:01;;;;;;;20.15;12.27;;;4.80;99.90;;;;;;5092896;28;20177;-51
2023/12/18 11:32:45;;;;;;;16.40;11.43;;;4.80;99.90;;;;;;5092386;28;20500;-51
2023/12/18 11:35:12;;;;;;;16.48;10.95;;;4.80;99.90;;;;;;5092220;28;20165;-50
2023/12/18 11:37:49;;;;;;;17.90;10.43;;;4.90;99.90;;;;;;5091651;28;20254;-55
2023/12/18 11:40:33;;;;;;;17.80;10.15;;;4.90;99.90;;;;;;5092270;28;20643;-55
2023/12/18 11:42:59;;;;;;;15.73;10.98;;;5.00;99.90;;;;;;5093068;28;20177;-58
2023/12/18 11:45:25;;;;;;;14.20;9.32;;;5.00;99.90;;;;;;5092618;28;20192;-57
2023/12/18 11:47:57;;;;;;;14.07;10.18;;;5.00;99.90;;;;;;5092319;28;20523;-55
2023/12/18 11:50:24;;;;;;;14.82;9.80;;;5.20;99.90;;;;;;5092544;28;20166;-51
2023/12/18 11:52:55;;;;;;;15.15;9.70;;;5.20;99.90;;;;;;5092013;28;20216;-53
2023/12/18 11:55:53;;;;;;;14.63;8.88;;;5.40;99.90;;;;;;5092111;28;20161;-53
2023/12/18 11:58:21;;;;;;;11.70;8.82;;;5.40;99.90;;;;;;5047502;28;20209;-54
2023/12/18 12:00:47;;;;;;;11.88;8.68;;;5.40;99.90;;;;;;5091781;28;20176;-52
2023/12/18 12:03:13;;;;;;;12.65;8.82;;;5.50;99.90;;;;;;5092174;28;20157;-57
2023/12/18 12:05:40;;;;;;;11.77;7.47;;;5.60;99.90;;;;;;5092462;28;20593;-59
2023/12/18 12:08:07;;;;;;;11.63;7.90;;;5.60;99.90;;;;;;5092372;28;20165;-55
2023/12/18 12:10:45;;;;;;;9.65;7.03;;;5.70;99.90;;;;;;5092170;28;20598;-50
2023/12/18 12:13:23;;;;;;;10.63;6.93;;;5.80;99.90;;;;;;5092050;28;20635;-50
2023/12/18 12:15:55;;;;;;;7.28;5.55;;;5.80;99.90;;;;;;5092071;28;20169;-51
2023/12/18 12:18:25;;;;;;;6.47;4.90;;;5.90;99.90;;;;;;5092401;28;20236;-51
2023/12/18 12:20:51;;;;;;;6.43;5.05;;;6.00;99.90;;;;;;5092083;28;20230;-51
2023/12/18 12:23:17;;;;;;;6.15;4.18;;;6.10;99.90;;;;;;5091772;28;20170;-51
2023/12/18 12:25:43;;;;;;;6.60;5.10;;;6.20;99.90;;;;;;5092335;28;20169;-51
2023/12/18 12:28:09;;;;;;;7.55;5.38;;;6.30;99.90;;;;;;5091721;28;20165;-51
2023/12/18 12:30:35;;;;;;;5.93;4.22;;;6.40;99.90;;;;;;5091972;28;20184;-50
2023/12/18 12:33:02;;;;;;;3.97;2.60;;;6.50;99.90;;;;;;5092151;28;20184;-54
2023/12/18 12:35:31;;;;;;;5.93;3.72;;;6.50;99.90;;;;;;5091788;28;20173;-53
2023/12/18 12:37:57;;;;;;;6.60;4.57;;;6.60;99.90;;;;;;5072766;28;20702;-50
2023/12/18 12:40:23;;;;;;;5.45;3.15;;;6.60;99.90;;;;;;5090791;28;20173;-52
2023/12/18 12:42:49;;;;;;;4.35;2.80;;;6.60;99.90;;;;;;5091846;28;20307;-52